Time;durP1;ratioP1;P1;durP2;ratioP2;P2;SDS_P1;SDS_P2;PMS_P1;PMS_P2;Temp;Humidity;BMP_temperature;BMP_pressure;BME280_temperature;BME280_humidity;BME280_pressure;Samples;Min_cycle;Max_cycle;Signal;HPM_P1;HPM_P2
2022/10/24 00:00:07;;;;;;;2.23;0.90;;;21.80;54.20;20.90;100193.00;;;;5092294;28;20039;-71
2022/10/24 00:02:33;;;;;;;3.40;1.10;;;21.90;54.30;20.90;100184.00;;;;5090758;28;20082;-71
2022/10/24 00:04:58;;;;;;;1.50;1.23;;;21.80;54.20;20.90;100188.00;;;;5093854;28;20024;-72
2022/10/24 00:07:24;;;;;;;1.83;0.80;;;21.80;54.20;20.90;100179.00;;;;5078125;28;20032;-71
2022/10/24 00:09:50;;;;;;;2.10;0.97;;;21.90;54.20;20.90;100186.00;;;;5092618;28;20040;-71
2022/10/24 00:12:36;;;;;;;2.27;1.00;;;21.90;54.20;20.90;100181.00;;;;5092480;28;20118;-71
2022/10/24 00:15:02;;;;;;;3.13;0.85;;;21.90;54.20;20.90;100184.00;;;;5090662;28;20040;-71
2022/10/24 00:17:28;;;;;;;3.40;1.17;;;21.90;54.20;20.90;100172.00;;;;5073251;28;20031;-71
2022/10/24 00:19:53;;;;;;;3.47;1.00;;;21.90;54.10;20.90;100161.00;;;;5092808;28;20038;-72
2022/10/24 00:22:20;;;;;;;2.53;1.00;;;21.90;54.20;20.90;100169.00;;;;5091803;28;20092;-71
2022/10/24 00:24:46;;;;;;;2.38;1.02;;;21.90;54.10;20.90;100171.00;;;;5092990;28;20028;-71
2022/10/24 00:27:11;;;;;;;1.35;1.00;;;21.90;54.20;20.90;100166.00;;;;5073889;28;20119;-71
2022/10/24 00:29:37;;;;;;;3.30;0.90;;;21.90;54.20;20.90;100161.00;;;;5093050;28;20032;-71
2022/10/24 00:32:03;;;;;;;1.93;0.80;;;21.90;54.20;20.90;100169.00;;;;5074634;28;20111;-71
2022/10/24 00:34:29;;;;;;;1.42;1.02;;;21.90;54.20;20.90;100157.00;;;;5092883;28;20555;-71
2022/10/24 00:36:54;;;;;;;2.43;1.00;;;21.80;54.10;20.90;100156.00;;;;5075831;28;20036;-71
2022/10/24 00:39:20;;;;;;;1.80;0.80;;;21.90;54.20;20.90;100147.00;;;;5092834;28;20107;-71
2022/10/24 00:41:46;;;;;;;3.63;1.00;;;21.90;54.20;20.90;100149.00;;;;5090889;28;20115;-71
2022/10/24 00:44:29;;;;;;;2.87;0.70;;;21.90;54.20;20.90;100154.00;;;;5092774;28;20103;-71
2022/10/24 00:47:07;;;;;;;2.13;1.02;;;21.90;54.20;20.90;100149.00;;;;5052122;28;20063;-72
2022/10/24 00:49:52;;;;;;;1.27;1.00;;;21.90;54.20;20.90;100158.00;;;;5073735;28;20105;-72
2022/10/24 00:52:22;;;;;;;3.53;0.93;;;21.90;54.20;20.90;100153.00;;;;5072767;28;20465;-71
2022/10/24 00:54:48;;;;;;;3.83;1.30;;;21.90;54.20;20.90;100149.00;;;;5069845;28;20534;-71
2022/10/24 00:57:36;;;;;;;2.90;1.25;;;21.80;54.10;20.90;100149.00;;;;5058920;28;20029;-72
2022/10/24 01:00:27;;;;;;;1.42;0.68;;;21.80;54.10;20.90;100134.00;;;;5072174;28;20036;-71
2022/10/24 01:02:53;;;;;;;1.95;0.90;;;21.80;54.20;20.90;100134.00;;;;5089069;28;20028;-71
2022/10/24 01:05:20;;;;;;;2.40;0.93;;;21.90;54.20;20.90;100133.00;;;;5091307;28;20374;-71
2022/10/24 01:08:08;;;;;;;2.20;1.08;;;21.80;54.10;20.90;100122.00;;;;5055713;28;20497;-72
2022/10/24 01:10:54;;;;;;;2.55;1.17;;;21.90;54.20;20.90;100130.00;;;;5086819;28;20024;-71
2022/10/24 01:13:29;;;;;;;1.85;0.90;;;21.80;54.20;20.90;100119.00;;;;5091805;28;20054;-71
2022/10/24 01:16:07;;;;;;;3.92;1.33;;;21.80;54.10;20.90;100115.00;;;;5091821;28;20024;-71
2022/10/24 01:18:48;;;;;;;3.08;1.02;;;21.90;54.30;20.90;100126.00;;;;5090573;28;20028;-71
2022/10/24 01:21:28;;;;;;;2.13;0.88;;;21.80;54.20;20.90;100121.00;;;;5072760;28;20111;-71
2022/10/24 01:24:05;;;;;;;2.00;0.90;;;21.80;54.20;20.90;100121.00;;;;5055941;28;20028;-71
2022/10/24 01:27:24;;;;;;;1.77;0.80;;;21.80;54.20;20.90;100117.00;;;;5066937;28;20036;-71
2022/10/24 01:30:08;;;;;;;1.83;1.00;;;21.80;54.20;20.90;100111.00;;;;5062471;28;20389;-72
2022/10/24 01:33:01;;;;;;;2.35;1.13;;;21.80;54.20;20.90;100104.00;;;;5051378;28;20032;-72
2022/10/24 01:35:55;;;;;;;2.53;1.10;;;21.80;54.20;20.90;100099.00;;;;5057337;28;20054;-72
2022/10/24 01:38:30;;;;;;;4.55;1.88;;;21.80;54.20;20.90;100083.00;;;;5056534;28;20023;-71
2022/10/24 01:41:00;;;;;;;2.58;1.00;;;21.80;54.20;20.90;100081.00;;;;5057029;28;20039;-72
2022/10/24 01:43:33;;;;;;;2.08;1.10;;;21.80;54.20;20.90;100086.00;;;;5072691;28;20020;-71
2022/10/24 01:46:11;;;;;;;2.75;1.20;;;21.80;54.20;20.90;100090.00;;;;5073184;28;20060;-71
2022/10/24 01:48:42;;;;;;;4.40;1.17;;;21.80;54.20;20.90;100084.00;;;;5054006;28;20054;-71
2022/10/24 01:51:08;;;;;;;3.78;1.10;;;21.80;54.20;20.90;100067.00;;;;5073493;28;20071;-71
2022/10/24 01:53:33;;;;;;;4.73;1.20;;;21.80;54.20;20.90;100075.00;;;;5055674;28;20036;-71
2022/10/24 01:55:59;;;;;;;2.33;1.07;;;21.80;54.10;20.90;100067.00;;;;5078089;28;20150;-71
2022/10/24 01:58:25;;;;;;;2.78;0.98;;;21.80;54.10;20.90;100070.00;;;;5055639;28;20043;-71
2022/10/24 02:00:53;;;;;;;6.93;1.33;;;21.80;54.20;20.90;100063.00;;;;5088995;28;20389;-71
2022/10/24 02:03:46;;;;;;;2.05;1.00;;;21.80;54.10;20.90;100061.00;;;;5073480;28;21039;-71
2022/10/24 02:06:26;;;;;;;4.15;1.23;;;21.80;54.10;20.90;100055.00;;;;5057286;28;20039;-71
2022/10/24 02:08:57;;;;;;;1.92;0.90;;;21.80;54.10;20.90;100051.00;;;;5072739;28;20031;-71
2022/10/24 02:11:23;;;;;;;1.67;1.20;;;21.80;54.10;20.90;100060.00;;;;5071419;28;20481;-71
2022/10/24 02:14:06;;;;;;;3.53;1.23;;;21.80;54.10;20.90;100052.00;;;;5073205;28;20028;-71
2022/10/24 02:16:31;;;;;;;1.88;1.00;;;21.80;54.10;20.90;100038.00;;;;5069419;28;20071;-71
2022/10/24 02:18:57;;;;;;;2.00;0.90;;;21.90;54.10;20.90;100033.00;;;;5090556;28;20081;-71
2022/10/24 02:22:20;;;;;;;3.53;1.10;;;21.80;54.10;20.90;100031.00;;;;5071687;28;20564;-71
2022/10/24 02:25:02;;;;;;;2.72;1.00;;;21.80;54.10;20.80;100026.00;;;;5088518;28;20055;-71
2022/10/24 02:27:37;;;;;;;2.70;1.00;;;21.80;54.00;20.80;100035.00;;;;5056331;28;20060;-71
2022/10/24 02:30:14;;;;;;;2.95;1.27;;;21.80;54.00;20.80;100023.00;;;;5053005;28;20039;-71
2022/10/24 02:32:47;;;;;;;2.83;1.33;;;21.80;54.00;20.80;100025.00;;;;5068252;28;20043;-71
2022/10/24 02:35:14;;;;;;;2.92;1.50;;;21.80;54.00;20.90;100022.00;;;;5072161;28;20481;-71
2022/10/24 02:37:46;;;;;;;4.15;1.08;;;21.80;54.00;20.90;100025.00;;;;5071773;28;20029;-71
2022/10/24 02:40:11;;;;;;;2.95;1.33;;;21.80;54.00;20.90;100019.00;;;;5070903;28;20028;-71
2022/10/24 02:42:38;;;;;;;3.88;1.30;;;21.90;54.10;20.90;100019.00;;;;5078607;28;20366;-71
2022/10/24 02:45:04;;;;;;;1.98;1.10;;;21.80;54.00;20.80;100017.00;;;;5071668;28;20489;-72
2022/10/24 02:47:30;;;;;;;1.98;0.82;;;21.80;54.00;20.80;100016.00;;;;5072173;28;20209;-71
2022/10/24 02:49:55;;;;;;;2.87;1.20;;;21.80;54.00;20.90;100021.00;;;;5072781;28;20381;-71
2022/10/24 02:52:22;;;;;;;3.83;1.53;;;21.80;54.00;20.90;100011.00;;;;5071276;28;20124;-71
2022/10/24 02:54:48;;;;;;;;;;;21.80;54.00;20.80;100012.00;;;;5072310;28;20020;-71
2022/10/24 02:57:14;;;;;;;3.90;1.10;;;21.80;54.00;20.80;100011.00;;;;5090544;28;19908;-71
2022/10/24 02:59:40;;;;;;;2.95;1.10;;;21.90;53.90;20.80;100013.00;;;;5072818;28;20039;-71
2022/10/24 03:02:05;;;;;;;5.28;1.50;;;21.80;53.80;20.80;100023.00;;;;5088827;28;20485;-71
2022/10/24 03:04:31;;;;;;;4.23;1.30;;;21.80;53.90;20.80;100019.00;;;;5072300;28;20020;-72
2022/10/24 03:06:57;;;;;;;2.67;1.10;;;21.80;53.90;20.80;100013.00;;;;5089400;28;21007;-71
2022/10/24 03:09:23;;;;;;;5.00;1.30;;;21.80;53.90;20.80;100017.00;;;;5089217;28;20118;-71
2022/10/24 03:11:49;;;;;;;4.20;1.77;;;21.80;53.90;20.80;100019.00;;;;5089357;28;20084;-71
2022/10/24 03:14:14;;;;;;;2.58;1.27;;;21.80;53.90;20.80;100019.00;;;;5076263;28;20024;-72
2022/10/24 03:16:40;;;;;;;4.27;1.70;;;21.80;53.90;20.80;100018.00;;;;5093417;28;20040;-72
2022/10/24 03:19:06;;;;;;;3.33;1.37;;;21.80;53.90;20.90;100014.00;;;;5093544;28;20476;-71
2022/10/24 03:21:32;;;;;;;4.10;1.40;;;21.80;54.00;20.90;100016.00;;;;5093029;28;20081;-71
2022/10/24 03:23:57;;;;;;;2.37;0.90;;;21.80;53.90;20.80;100018.00;;;;5076095;28;20035;-71
2022/10/24 03:26:23;;;;;;;3.00;1.20;;;21.80;53.90;20.80;100021.00;;;;5092516;28;21061;-72
2022/10/24 03:28:49;;;;;;;2.60;1.70;;;21.80;53.90;20.90;100028.00;;;;5094273;28;20056;-71
2022/10/24 03:31:15;;;;;;;3.23;1.27;;;21.80;53.90;20.90;100026.00;;;;5092080;28;20114;-71
2022/10/24 03:33:40;;;;;;;4.63;1.53;;;21.80;53.90;20.90;100023.00;;;;5093521;28;20036;-71
2022/10/24 03:36:06;;;;;;;4.50;1.30;;;21.80;53.90;20.90;100023.00;;;;5092190;28;20459;-72
2022/10/24 03:38:32;;;;;;;8.73;1.30;;;21.80;53.90;20.90;100024.00;;;;5093911;28;20385;-71
2022/10/24 03:40:58;;;;;;;2.30;1.23;;;21.80;53.90;20.90;100025.00;;;;5082945;28;20040;-71
2022/10/24 03:43:24;;;;;;;3.13;1.20;;;21.80;53.90;20.90;100019.00;;;;5093469;28;20445;-71
2022/10/24 03:45:49;;;;;;;2.67;1.20;;;21.80;53.90;20.90;100016.00;;;;5092670;28;20584;-71
2022/10/24 03:48:15;;;;;;;3.13;1.33;;;21.80;53.90;20.90;100014.00;;;;5093545;28;20533;-71
2022/10/24 03:50:41;;;;;;;5.35;1.10;;;21.80;53.80;20.90;100012.00;;;;5092410;28;20533;-71
2022/10/24 03:53:07;;;;;;;3.37;1.10;;;21.80;53.80;20.90;100009.00;;;;5092917;28;20032;-71
2022/10/24 03:55:33;;;;;;;3.43;1.23;;;21.80;53.80;20.90;100010.00;;;;5092771;28;20107;-71
2022/10/24 03:57:58;;;;;;;2.15;1.10;;;21.80;53.80;20.90;100012.00;;;;5090006;28;20043;-71
2022/10/24 04:00:27;;;;;;;2.37;1.03;;;21.90;53.90;20.90;100009.00;;;;5093121;28;20558;-71
2022/10/24 04:02:52;;;;;;;2.22;1.50;;;21.80;53.80;20.90;100008.00;;;;5092468;28;20115;-71
2022/10/24 04:05:18;;;;;;;2.30;1.40;;;21.80;53.70;20.90;100011.00;;;;5083592;28;20030;-71
2022/10/24 04:07:44;;;;;;;6.67;1.60;;;21.80;53.70;20.90;100011.00;;;;5091455;28;20572;-71
2022/10/24 04:10:10;;;;;;;5.23;1.47;;;21.80;53.70;20.90;100012.00;;;;5092039;28;20035;-71
2022/10/24 04:12:35;;;;;;;3.47;1.33;;;21.80;53.70;20.90;100015.00;;;;5092886;28;20113;-71
2022/10/24 04:15:01;;;;;;;2.50;1.20;;;21.80;53.70;20.90;100016.00;;;;5093507;28;20028;-71
2022/10/24 04:17:27;;;;;;;2.53;1.00;;;21.90;53.80;20.90;100014.00;;;;5073019;28;20113;-71
2022/10/24 04:19:53;;;;;;;1.93;1.07;;;21.80;54.40;20.90;100022.00;;;;5091975;28;20449;-71
2022/10/24 04:22:19;;;;;;;3.93;2.10;;;21.80;53.70;20.90;100025.00;;;;5092205;28;20602;-71
2022/10/24 04:24:45;;;;;;;2.33;1.45;;;21.80;53.70;20.90;100044.00;;;;5075456;28;20072;-71
2022/10/24 04:27:10;;;;;;;3.03;1.30;;;21.80;53.70;20.90;100039.00;;;;5092098;28;20034;-71
2022/10/24 04:29:36;;;;;;;5.63;1.20;;;21.90;53.70;20.90;100031.00;;;;5093312;28;20127;-71
2022/10/24 04:32:02;;;;;;;5.37;1.40;;;21.90;53.70;20.90;100038.00;;;;5087669;28;20466;-71
2022/10/24 04:34:28;;;;;;;6.57;1.50;;;21.80;53.50;20.90;100037.00;;;;5072151;28;20488;-71
2022/10/24 04:36:53;;;;;;;2.90;1.27;;;21.80;53.60;20.90;100032.00;;;;5072451;28;20461;-72
2022/10/24 04:39:19;;;;;;;1.93;1.10;;;21.90;53.60;20.90;100035.00;;;;5099429;28;20127;-71
2022/10/24 04:41:45;;;;;;;2.33;1.20;;;21.80;53.60;20.90;100028.00;;;;5090190;28;20439;-73
2022/10/24 04:44:11;;;;;;;1.67;0.95;;;21.80;53.50;20.90;100041.00;;;;5074668;28;20023;-73
2022/10/24 04:46:37;;;;;;;4.32;1.45;;;21.80;53.50;20.90;100037.00;;;;5073126;28;20385;-73
2022/10/24 04:49:03;;;;;;;2.93;0.90;;;21.80;53.50;20.90;100030.00;;;;5090726;28;20031;-73
2022/10/24 04:51:28;;;;;;;2.03;1.43;;;21.80;53.50;20.90;100024.00;;;;5090160;28;20177;-71
2022/10/24 04:53:54;;;;;;;2.83;1.17;;;21.80;53.50;20.90;100026.00;;;;5092706;28;20553;-71
2022/10/24 04:56:20;;;;;;;2.97;1.37;;;21.90;53.60;20.90;100027.00;;;;5091457;28;20248;-72
2022/10/24 04:58:46;;;;;;;3.28;1.30;;;21.80;53.50;20.90;100027.00;;;;5099136;28;20045;-71
2022/10/24 05:01:11;;;;;;;1.77;1.00;;;21.80;53.50;20.90;100021.00;;;;5089578;28;20063;-71
2022/10/24 05:03:37;;;;;;;2.73;1.20;;;21.80;53.50;20.90;100027.00;;;;5065849;28;20111;-71
2022/10/24 05:06:03;;;;;;;6.27;1.63;;;21.80;53.50;20.90;100038.00;;;;5071244;28;20179;-71
2022/10/24 05:08:29;;;;;;;3.70;1.52;;;21.80;53.40;20.90;100029.00;;;;5090843;28;20500;-71
2022/10/24 05:10:55;;;;;;;2.03;1.03;;;21.80;53.50;20.90;100035.00;;;;5088727;28;20063;-71
2022/10/24 05:13:20;;;;;;;4.07;1.20;;;21.80;53.40;20.90;100030.00;;;;5089053;28;20032;-71
2022/10/24 05:15:46;;;;;;;2.13;1.10;;;21.80;53.70;20.90;100029.00;;;;5071812;28;20495;-71
2022/10/24 05:18:12;;;;;;;3.80;1.40;;;21.90;53.50;20.90;100027.00;;;;5088840;28;20456;-71
2022/10/24 05:20:38;;;;;;;3.60;1.20;;;21.80;53.40;20.90;100027.00;;;;5087589;28;20548;-71
2022/10/24 05:23:03;;;;;;;5.07;1.40;;;21.80;53.40;20.90;100025.00;;;;5092233;28;20099;-71
2022/10/24 05:25:29;;;;;;;2.13;1.13;;;21.80;53.30;20.90;100034.00;;;;5091732;28;20029;-71
2022/10/24 05:27:55;;;;;;;1.60;1.20;;;21.80;53.30;20.90;100031.00;;;;5089441;28;20561;-71
2022/10/24 05:30:21;;;;;;;2.77;1.43;;;21.80;53.30;20.90;100037.00;;;;5091093;28;20104;-71
2022/10/24 05:32:46;;;;;;;2.87;1.70;;;21.80;53.30;20.90;100026.00;;;;5089081;28;20533;-71
2022/10/24 05:35:12;;;;;;;5.63;1.60;;;21.90;53.20;20.90;100034.00;;;;5089503;28;20457;-71
2022/10/24 05:37:38;;;;;;;2.85;1.45;;;21.80;53.10;20.90;100034.00;;;;5088699;28;20028;-71
2022/10/24 05:40:07;;;;;;;3.70;1.27;;;21.80;53.20;20.90;100031.00;;;;5069082;28;20028;-71
2022/10/24 05:42:33;;;;;;;3.75;1.42;;;21.80;53.10;20.90;100039.00;;;;5069289;28;20118;-71
2022/10/24 05:44:58;;;;;;;4.67;1.93;;;21.80;53.20;20.90;100031.00;;;;5091231;28;20416;-71
2022/10/24 05:47:24;;;;;;;4.03;1.20;;;21.80;53.20;20.90;100032.00;;;;5089115;28;20216;-71
2022/10/24 05:49:50;;;;;;;3.10;1.33;;;21.80;53.20;20.90;100040.00;;;;5089874;28;20397;-71
2022/10/24 05:52:15;;;;;;;4.97;1.80;;;21.80;53.90;20.90;100043.00;;;;5069007;28;20024;-71
2022/10/24 05:54:41;;;;;;;3.97;1.60;;;21.80;53.20;20.90;100040.00;;;;5088037;28;20071;-71
2022/10/24 05:57:07;;;;;;;1.83;1.10;;;21.80;53.10;20.90;100043.00;;;;5087306;28;20157;-71
2022/10/24 05:59:33;;;;;;;5.27;1.90;;;21.80;53.20;20.90;100059.00;;;;5089868;28;20146;-71
2022/10/24 06:01:58;;;;;;;2.33;1.03;;;21.80;53.10;20.90;100063.00;;;;5088728;28;20105;-71
2022/10/24 06:04:24;;;;;;;2.93;1.60;;;21.80;53.10;20.90;100058.00;;;;5092000;28;21005;-71
2022/10/24 06:06:50;;;;;;;2.40;1.30;;;21.80;53.00;20.90;100045.00;;;;5087709;28;20105;-71
2022/10/24 06:09:16;;;;;;;2.90;1.23;;;21.80;53.10;20.90;100058.00;;;;5087536;28;20088;-71
2022/10/24 06:11:42;;;;;;;13.80;2.50;;;21.80;53.10;20.90;100051.00;;;;5069203;28;20380;-71
2022/10/24 06:14:07;;;;;;;3.22;1.42;;;21.80;52.90;20.90;100056.00;;;;5090947;28;20370;-71
2022/10/24 06:16:33;;;;;;;5.47;1.23;;;21.80;52.90;20.90;100059.00;;;;5087212;28;20036;-71
2022/10/24 06:18:59;;;;;;;3.00;1.35;;;21.80;52.80;20.90;100054.00;;;;5072697;28;20028;-71
2022/10/24 06:21:25;;;;;;;4.07;1.38;;;21.70;52.80;20.80;100068.00;;;;5078883;28;20496;-71
2022/10/24 06:23:51;;;;;;;2.40;1.90;;;21.80;52.90;20.80;100064.00;;;;5084316;28;20499;-71
2022/10/24 06:26:17;;;;;;;4.95;1.50;;;21.80;52.90;20.80;100064.00;;;;5086813;28;20025;-71
2022/10/24 06:28:42;;;;;;;4.00;1.43;;;21.80;52.90;20.90;100070.00;;;;5086188;28;20028;-71
2022/10/24 06:31:09;;;;;;;1.70;0.90;;;21.80;52.90;20.80;100064.00;;;;5070876;28;20387;-71
2022/10/24 06:33:35;;;;;;;2.55;1.10;;;21.80;52.90;20.80;100067.00;;;;5089616;28;20031;-71
2022/10/24 06:36:03;;;;;;;4.17;1.40;;;21.80;52.90;20.90;100075.00;;;;5088831;28;20035;-71
2022/10/24 06:38:29;;;;;;;2.75;1.20;;;21.70;52.80;20.90;100084.00;;;;5091011;28;20031;-71
2022/10/24 06:40:55;;;;;;;2.20;1.10;;;21.80;52.90;20.80;100083.00;;;;5088994;28;20039;-71
2022/10/24 06:43:21;;;;;;;2.97;1.10;;;21.80;52.90;20.90;100078.00;;;;5088838;28;20107;-71
2022/10/24 06:45:46;;;;;;;3.83;1.17;;;21.80;52.90;20.80;100077.00;;;;5088718;28;20037;-71
2022/10/24 06:48:12;;;;;;;2.10;1.20;;;21.90;52.90;20.80;100087.00;;;;5090852;28;20042;-72
2022/10/24 06:50:39;;;;;;;6.03;1.30;;;21.80;52.80;20.90;100092.00;;;;5093435;28;20689;-71
2022/10/24 06:53:06;;;;;;;4.80;1.10;;;21.80;52.70;20.80;100086.00;;;;5076272;28;20106;-71
2022/10/24 06:55:33;;;;;;;3.97;1.50;;;21.80;52.80;20.80;100078.00;;;;5075472;28;20047;-71
2022/10/24 06:57:59;;;;;;;4.20;1.33;;;21.80;52.70;20.80;100088.00;;;;5093399;28;20032;-71
2022/10/24 07:00:25;;;;;;;3.77;1.60;;;21.80;52.80;20.80;100090.00;;;;5073922;28;20039;-71
2022/10/24 07:02:51;;;;;;;4.00;1.10;;;21.80;52.80;20.80;100088.00;;;;5093570;28;20039;-71
2022/10/24 07:05:17;;;;;;;3.67;1.43;;;21.80;52.70;20.80;100086.00;;;;5093380;28;20020;-71
2022/10/24 07:07:43;;;;;;;5.87;1.63;;;21.80;52.70;20.80;100085.00;;;;5094155;28;20028;-71
2022/10/24 07:10:12;;;;;;;4.90;1.35;;;21.80;52.60;20.80;100091.00;;;;5098157;28;20442;-71
2022/10/24 07:12:37;;;;;;;3.28;1.17;;;21.80;52.50;20.80;100095.00;;;;5093194;28;20048;-71
2022/10/24 07:15:04;;;;;;;1.93;1.07;;;21.80;52.40;20.80;100092.00;;;;5092768;28;20032;-72
2022/10/24 07:17:30;;;;;;;4.25;1.20;;;21.80;52.50;20.80;100102.00;;;;5090125;28;20040;-71
2022/10/24 07:19:56;;;;;;;4.95;1.33;;;21.80;52.50;20.80;100098.00;;;;5092769;28;20039;-71
2022/10/24 07:22:22;;;;;;;4.20;1.10;;;21.80;52.50;20.80;100101.00;;;;5089894;28;20465;-71
2022/10/24 07:24:53;;;;;;;4.13;1.02;;;21.80;52.60;20.80;100106.00;;;;5092181;28;20028;-71
2022/10/24 07:27:19;;;;;;;5.88;1.20;;;21.80;52.50;20.80;100109.00;;;;5071752;28;20131;-71
2022/10/24 07:29:45;;;;;;;3.20;0.90;;;21.80;52.40;20.80;100108.00;;;;5068389;28;20059;-71
2022/10/24 07:32:11;;;;;;;4.85;1.38;;;21.80;52.40;20.80;100108.00;;;;5090077;28;20557;-71
2022/10/24 07:34:38;;;;;;;5.20;1.00;;;21.80;52.40;20.80;100104.00;;;;5072843;28;20051;-71
2022/10/24 07:37:04;;;;;;;3.35;1.00;;;21.80;52.30;20.80;100098.00;;;;5073466;28;20036;-71
2022/10/24 07:39:30;;;;;;;3.40;0.80;;;21.80;52.40;20.80;100096.00;;;;5091801;28;20525;-71
2022/10/24 07:41:55;;;;;;;3.03;0.80;;;21.80;52.40;20.80;100095.00;;;;5092199;28;20048;-71
2022/10/24 07:44:21;;;;;;;3.80;1.20;;;21.70;52.20;20.80;100104.00;;;;5092232;28;20115;-71
2022/10/24 07:46:47;;;;;;;1.80;0.50;;;21.70;52.20;20.80;100103.00;;;;5092775;28;20070;-71
2022/10/24 07:49:13;;;;;;;4.17;1.00;;;21.70;52.90;20.80;100091.00;;;;5092469;28;20104;-71
2022/10/24 07:51:40;;;;;;;4.73;0.90;;;21.70;52.20;20.80;100100.00;;;;5092124;28;20082;-71
2022/10/24 07:54:06;;;;;;;3.30;0.95;;;21.70;52.20;20.80;100094.00;;;;5081895;28;20405;-71
2022/10/24 07:56:32;;;;;;;4.57;1.10;;;21.70;52.10;20.80;100102.00;;;;5092929;28;20040;-71
2022/10/24 07:58:59;;;;;;;2.03;0.70;;;21.80;52.20;20.80;100102.00;;;;5092547;28;20115;-71
2022/10/24 08:01:26;;;;;;;6.32;1.17;;;21.80;52.30;20.80;100091.00;;;;5074888;28;20102;-71
2022/10/24 08:03:51;;;;;;;4.25;1.35;;;21.70;52.20;20.80;100096.00;;;;5093252;28;20036;-71
2022/10/24 08:06:21;;;;;;;4.50;1.20;;;21.70;52.20;20.80;100088.00;;;;5091141;28;20038;-71
2022/10/24 08:08:46;;;;;;;5.22;0.73;;;21.80;52.20;20.80;100099.00;;;;5091513;28;20113;-71
2022/10/24 08:11:18;;;;;;;3.47;0.90;;;21.70;52.10;20.80;100095.00;;;;5089770;28;20032;-71
2022/10/24 08:13:44;;;;;;;2.70;0.80;;;21.70;52.20;20.70;100101.00;;;;5091874;28;20035;-71
2022/10/24 08:16:11;;;;;;;8.20;1.00;;;21.70;52.20;20.70;100104.00;;;;5081224;28;20460;-71
2022/10/24 08:18:37;;;;;;;3.42;1.00;;;21.70;52.10;20.80;100101.00;;;;5074506;28;20066;-71
2022/10/24 08:21:05;;;;;;;2.08;0.80;;;21.80;52.20;20.70;100099.00;;;;5073471;28;20067;-71
2022/10/24 08:23:32;;;;;;;3.90;0.82;;;21.70;52.10;20.80;100098.00;;;;5074584;28;20157;-71
2022/10/24 08:25:57;;;;;;;;;;;21.70;52.00;20.70;100105.00;;;;5091950;28;20039;-71
2022/10/24 08:28:23;;;;;;;3.08;0.80;;;21.70;52.20;20.70;100105.00;;;;5092509;28;19916;-71
2022/10/24 08:31:00;;;;;;;3.90;1.00;;;21.70;52.00;20.70;100110.00;;;;5075558;28;20035;-71
2022/10/24 08:33:26;;;;;;;2.67;0.70;;;21.80;52.10;20.70;100114.00;;;;5089081;28;21014;-71
2022/10/24 08:35:53;;;;;;;6.55;0.95;;;21.70;52.00;20.70;100112.00;;;;5091317;28;20073;-71
2022/10/24 08:38:19;;;;;;;4.40;1.10;;;21.80;52.10;20.70;100112.00;;;;5074103;28;20039;-71
2022/10/24 08:40:47;;;;;;;4.27;1.00;;;21.70;52.10;20.70;100116.00;;;;5081824;28;20558;-71
2022/10/24 08:43:13;;;;;;;1.63;0.75;;;21.70;52.20;20.70;100109.00;;;;5074284;28;20114;-71
2022/10/24 08:46:04;;;;;;;3.73;0.87;;;21.80;52.10;20.70;100108.00;;;;5073572;28;20496;-71
2022/10/24 08:48:36;;;;;;;4.82;1.00;;;21.70;52.10;20.70;100119.00;;;;5074073;28;20363;-71
2022/10/24 08:51:26;;;;;;;3.70;1.00;;;21.80;52.10;20.70;100116.00;;;;5056989;28;20411;-71
2022/10/24 08:53:52;;;;;;;6.88;1.17;;;21.80;52.00;20.70;100123.00;;;;5078173;28;20024;-71
2022/10/24 08:56:28;;;;;;;2.83;0.90;;;21.70;52.10;20.70;100111.00;;;;5072728;28;20372;-71
2022/10/24 08:58:54;;;;;;;3.00;0.88;;;21.70;51.90;20.70;100111.00;;;;5072831;28;20546;-71
2022/10/24 09:01:47;;;;;;;2.57;0.70;;;21.70;51.90;20.70;100115.00;;;;5072548;28;20255;-71
2022/10/24 09:04:15;;;;;;;4.82;0.85;;;21.80;52.00;20.70;100115.00;;;;5082693;28;20020;-71
2022/10/24 09:06:40;;;;;;;2.83;1.13;;;21.70;51.90;20.70;100120.00;;;;5057338;28;20062;-71
2022/10/24 09:09:18;;;;;;;1.33;0.70;;;21.70;51.90;20.70;100124.00;;;;5073617;28;20028;-71
2022/10/24 09:12:00;;;;;;;4.70;0.80;;;21.80;52.00;20.70;100122.00;;;;5089507;28;20111;-71
2022/10/24 09:14:28;;;;;;;4.88;1.00;;;21.70;51.80;20.70;100124.00;;;;5056497;28;20028;-71
2022/10/24 09:17:24;;;;;;;2.28;0.75;;;21.70;51.80;20.70;100130.00;;;;5090533;28;20058;-71
2022/10/24 09:19:57;;;;;;;2.90;0.68;;;21.70;51.80;20.70;100126.00;;;;5066155;28;20051;-71
2022/10/24 09:22:24;;;;;;;6.22;1.48;;;21.70;51.80;20.70;100130.00;;;;5072028;28;20032;-71
2022/10/24 09:25:05;;;;;;;2.58;0.80;;;21.70;51.80;20.70;100133.00;;;;5074137;28;20028;-71
2022/10/24 09:27:36;;;;;;;5.18;0.80;;;21.70;51.80;20.70;100130.00;;;;5056732;28;20032;-71
2022/10/24 09:30:03;;;;;;;4.55;0.75;;;21.60;51.70;20.80;100135.00;;;;5071538;28;20130;-71
2022/10/24 09:32:30;;;;;;;4.00;0.93;;;21.60;51.80;20.80;100135.00;;;;5072610;28;20040;-71
2022/10/24 09:35:02;;;;;;;3.65;0.80;;;21.70;51.80;20.80;100141.00;;;;5074386;28;20590;-71
2022/10/24 09:37:37;;;;;;;4.28;0.98;;;21.80;51.80;20.80;100146.00;;;;5067173;28;20241;-71
2022/10/24 09:40:23;;;;;;;3.47;1.02;;;21.70;51.70;20.80;100144.00;;;;5079573;28;20027;-71
2022/10/24 09:42:59;;;;;;;3.40;0.82;;;21.70;51.70;20.80;100148.00;;;;5072407;28;20136;-71
2022/10/24 09:45:37;;;;;;;4.43;1.08;;;21.80;51.80;20.80;100166.00;;;;5068388;28;20039;-71
2022/10/24 09:48:41;;;;;;;4.88;1.58;;;21.70;51.70;20.80;100149.00;;;;5088026;28;20029;-72
2022/10/24 09:51:07;;;;;;;2.63;0.70;;;21.80;51.70;20.70;100159.00;;;;5084618;28;20074;-72
2022/10/24 09:53:36;;;;;;;3.13;1.03;;;21.70;51.70;20.80;100163.00;;;;5072987;28;20028;-72
2022/10/24 09:56:10;;;;;;;2.55;0.50;;;21.80;51.80;20.80;100150.00;;;;5071331;28;20166;-71
2022/10/24 09:58:36;;;;;;;2.45;1.15;;;21.80;51.70;20.80;100165.00;;;;5070838;28;20027;-71
2022/10/24 10:01:05;;;;;;;2.53;0.50;;;21.80;51.80;20.80;100159.00;;;;5073491;28;20398;-71
2022/10/24 10:03:33;;;;;;;3.20;0.90;;;21.80;51.80;20.80;100174.00;;;;5057748;28;20025;-71
2022/10/24 10:06:14;;;;;;;3.20;0.70;;;21.80;51.80;20.70;100163.00;;;;5071512;28;20020;-71
2022/10/24 10:08:40;;;;;;;2.72;0.85;;;21.70;51.70;20.80;100176.00;;;;5072992;28;20024;-71
2022/10/24 10:11:07;;;;;;;3.27;0.83;;;21.70;51.60;20.80;100176.00;;;;5070342;28;20028;-71
2022/10/24 10:13:48;;;;;;;2.83;0.73;;;21.70;51.60;20.80;100166.00;;;;5075592;28;20481;-71
2022/10/24 10:16:32;;;;;;;4.22;0.82;;;21.70;51.70;20.80;100171.00;;;;5078488;28;20165;-71
2022/10/24 10:19:13;;;;;;;2.17;0.60;;;21.70;51.60;20.80;100172.00;;;;5056250;28;20024;-71
2022/10/24 10:22:21;;;;;;;4.75;0.80;;;21.80;51.60;20.80;100165.00;;;;5090320;28;20339;-71
2022/10/24 10:24:49;;;;;;;4.38;1.08;;;21.70;51.70;20.80;100177.00;;;;5055949;28;20052;-71
2022/10/24 10:27:35;;;;;;;3.92;0.98;;;21.70;51.60;20.80;100184.00;;;;5055771;28;20042;-71
2022/10/24 10:30:12;;;;;;;2.90;1.00;;;21.80;51.60;20.80;100176.00;;;;5088165;28;20035;-71
2022/10/24 10:33:15;;;;;;;2.40;0.77;;;21.70;51.40;20.80;100173.00;;;;5089600;28;20032;-71
2022/10/24 10:36:12;;;;;;;4.40;1.00;;;21.70;51.50;20.80;100185.00;;;;5088691;28;20039;-71
2022/10/24 10:39:18;;;;;;;4.68;0.88;;;21.80;51.50;20.80;100181.00;;;;5089896;28;20036;-71
2022/10/24 10:41:57;;;;;;;5.05;0.98;;;21.70;51.50;20.80;100186.00;;;;4977787;28;20034;-71
2022/10/24 10:44:53;;;;;;;5.18;0.98;;;21.70;51.40;20.80;100179.00;;;;5083729;28;20059;-71
2022/10/24 10:48:14;;;;;;;3.17;0.70;;;21.70;51.40;20.80;100190.00;;;;5075695;28;20027;-71
2022/10/24 10:50:49;;;;;;;3.80;1.00;;;21.70;51.40;20.80;100200.00;;;;5082918;28;20036;-71
2022/10/24 10:53:39;;;;;;;3.15;1.02;;;21.80;51.50;20.80;100188.00;;;;5072199;28;20548;-72
2022/10/24 10:56:16;;;;;;;4.00;0.80;;;21.80;51.50;20.80;100194.00;;;;5070907;28;20036;-71
2022/10/24 10:59:13;;;;;;;3.92;0.90;;;21.80;51.40;20.80;100187.00;;;;5072522;28;20024;-71
2022/10/24 11:01:50;;;;;;;4.18;0.80;;;21.70;51.30;20.80;100188.00;;;;5070217;28;20386;-71